createdAt,value
2018-04-14T00:01:32.255Z,9.78
2018-04-14T00:04:01.295Z,9.81
2018-04-14T00:06:29.662Z,9.79
2018-04-14T00:08:57.934Z,9.76
2018-04-14T00:11:26.189Z,9.71
2018-04-14T00:13:54.460Z,9.64
2018-04-14T00:16:22.821Z,9.69
2018-04-14T00:18:51.855Z,9.52
2018-04-14T00:21:20.131Z,9.56
2018-04-14T00:23:48.765Z,9.53
2018-04-14T00:26:17.794Z,9.50
2018-04-14T00:28:46.084Z,9.51
2018-04-14T00:31:14.486Z,9.46
2018-04-14T00:33:42.746Z,9.41
2018-04-14T00:36:11.019Z,9.31
2018-04-14T00:38:39.301Z,9.27
2018-04-14T00:41:07.568Z,9.30
2018-04-14T00:43:35.833Z,9.24
2018-04-14T00:46:04.114Z,9.33
2018-04-14T00:48:32.360Z,9.31
2018-04-14T00:51:00.636Z,9.38
2018-04-14T00:53:49.630Z,9.30
2018-04-14T00:56:17.922Z,9.26
2018-04-14T00:58:46.198Z,9.19
2018-04-14T01:01:14.504Z,9.27
2018-04-14T01:03:43.541Z,9.34
2018-04-14T01:06:11.830Z,9.22
2018-04-14T01:08:40.102Z,9.19
2018-04-14T01:11:08.374Z,9.16
2018-04-14T01:13:36.659Z,9.13
2018-04-14T01:16:04.929Z,9.16
2018-04-14T01:18:33.209Z,9.11
2018-04-14T01:21:01.524Z,9.19
2018-04-14T01:23:30.574Z,9.29
2018-04-14T01:25:58.828Z,9.23
2018-04-14T01:28:27.119Z,9.25
2018-04-14T01:30:55.355Z,9.23
2018-04-14T01:33:23.649Z,9.33
2018-04-14T01:35:52.186Z,9.23
2018-04-14T01:38:20.450Z,9.26
2018-04-14T01:40:48.757Z,9.24
2018-04-14T01:43:17.018Z,9.23
2018-04-14T01:45:46.066Z,9.31
2018-04-14T01:48:14.344Z,9.28
2018-04-14T01:50:42.620Z,9.24
2018-04-14T01:53:10.888Z,9.24
2018-04-14T01:55:39.172Z,9.15
2018-04-14T01:58:07.448Z,9.03
2018-04-14T02:00:35.714Z,9.04
2018-04-14T02:03:03.997Z,9.05
2018-04-14T02:05:32.247Z,8.95
2018-04-14T02:08:00.621Z,9.06
2018-04-14T02:10:28.895Z,8.82
2018-04-14T02:12:57.494Z,8.88
2018-04-14T02:15:25.767Z,8.96
2018-04-14T02:17:54.013Z,9.23
2018-04-14T02:20:22.293Z,9.21
2018-04-14T02:22:50.546Z,9.25
2018-04-14T02:25:19.583Z,9.31
2018-04-14T02:27:47.836Z,9.30
2018-04-14T02:30:16.109Z,9.36
2018-04-14T02:32:44.382Z,9.42
2018-04-14T02:35:13.414Z,9.48
2018-04-14T02:37:41.679Z,9.54
2018-04-14T02:40:09.950Z,9.72
2018-04-14T02:42:38.206Z,9.68
2018-04-14T02:45:06.481Z,9.79
2018-04-14T02:47:34.756Z,9.88
2018-04-14T02:50:03.036Z,9.87
2018-04-14T02:52:31.319Z,9.90
2018-04-14T02:57:34.145Z,9.99
2018-04-14T03:00:02.424Z,9.84
2018-04-14T03:02:30.678Z,9.90
2018-04-14T03:04:58.941Z,9.90
2018-04-14T03:07:27.220Z,9.93
2018-04-14T03:09:55.503Z,9.97
2018-04-14T03:12:23.800Z,10.06
2018-04-14T03:14:52.053Z,10.01
2018-04-14T03:17:20.322Z,10.02
2018-04-14T03:19:48.593Z,9.99
2018-04-14T03:22:16.876Z,9.94
2018-04-14T03:24:45.134Z,9.88
2018-04-14T03:27:13.529Z,9.72
2018-04-14T03:29:41.816Z,9.84
2018-04-14T03:32:10.077Z,9.76
2018-04-14T03:34:38.349Z,9.68
2018-04-14T03:37:06.627Z,9.77
2018-04-14T03:39:34.910Z,9.75
2018-04-14T03:42:03.560Z,9.72
2018-04-14T03:44:31.844Z,9.57
2018-04-14T03:47:00.105Z,9.60
2018-04-14T03:49:28.412Z,9.60
2018-04-14T03:51:56.676Z,9.52
2018-04-14T03:54:24.970Z,9.43
2018-04-14T03:56:53.235Z,9.46
2018-04-14T03:59:21.505Z,9.49
2018-04-14T04:01:49.820Z,9.38
2018-04-14T04:04:18.077Z,9.32
2018-04-14T04:06:46.329Z,9.23
2018-04-14T04:09:14.594Z,9.36
2018-04-14T04:11:42.861Z,9.21
2018-04-14T04:14:11.118Z,9.11
2018-04-14T04:16:40.169Z,9.06
2018-04-14T04:19:26.187Z,8.94
2018-04-14T04:22:13.195Z,8.91
2018-04-14T04:24:59.287Z,8.86
2018-04-14T04:27:27.630Z,8.86
2018-04-14T04:29:55.908Z,8.61
2018-04-14T04:32:24.154Z,8.67
2018-04-14T04:34:52.452Z,8.71
2018-04-14T04:37:20.699Z,8.66
2018-04-14T04:39:48.974Z,8.55
2018-04-14T04:42:17.256Z,8.53
2018-04-14T04:44:45.533Z,8.58
2018-04-14T04:47:13.803Z,8.59
2018-04-14T04:49:42.066Z,8.50
2018-04-14T04:52:11.478Z,8.62
2018-04-14T04:54:39.738Z,8.67
2018-04-14T04:57:08.801Z,8.74
2018-04-14T04:59:37.153Z,8.83
2018-04-14T05:02:05.446Z,8.99
2018-04-14T05:04:33.712Z,9.32
2018-04-14T05:07:02.008Z,9.47
2018-04-14T05:09:30.290Z,9.58
2018-04-14T05:11:58.554Z,9.57
2018-04-14T05:14:26.813Z,9.63
2018-04-14T05:16:55.133Z,9.59
2018-04-14T05:19:24.166Z,9.88
2018-04-14T05:21:52.479Z,9.84
2018-04-14T05:24:20.735Z,9.80
2018-04-14T05:26:49.022Z,9.89
2018-04-14T05:29:17.289Z,9.90
2018-04-14T05:31:45.634Z,9.96
2018-04-14T05:34:14.345Z,10.03
2018-04-14T05:36:42.618Z,10.08
2018-04-14T05:39:10.897Z,10.24
2018-04-14T05:41:39.150Z,10.19
2018-04-14T05:44:07.440Z,9.98
2018-04-14T05:46:35.762Z,10.24
2018-04-14T05:49:04.816Z,10.30
2018-04-14T05:51:33.125Z,10.24
2018-04-14T05:54:02.253Z,10.29
2018-04-14T05:56:30.525Z,10.20
2018-04-14T05:58:58.826Z,10.33
2018-04-14T06:01:27.097Z,10.30
2018-04-14T06:03:55.378Z,10.38
2018-04-14T06:06:23.651Z,10.52
2018-04-14T06:08:51.907Z,10.60
2018-04-14T06:11:20.196Z,10.56
2018-04-14T06:13:48.453Z,10.63
2018-04-14T06:16:16.866Z,10.75
2018-04-14T06:18:45.130Z,10.73
2018-04-14T06:21:13.425Z,10.86
2018-04-14T06:23:41.690Z,11.05
2018-04-14T06:26:09.977Z,11.11
2018-04-14T06:28:38.286Z,11.14
2018-04-14T06:31:07.340Z,11.47
2018-04-14T06:33:35.655Z,11.58
2018-04-14T06:36:04.695Z,11.81
2018-04-14T06:38:33.010Z,11.89
2018-04-14T06:41:01.291Z,12.07
2018-04-14T06:43:30.567Z,12.29
2018-04-14T06:45:58.886Z,12.50
2018-04-14T06:48:27.157Z,12.56
2018-04-14T06:50:55.451Z,12.67
2018-04-14T06:53:23.746Z,12.81
2018-04-14T06:55:52.040Z,12.92
2018-04-14T06:58:20.304Z,12.80
2018-04-14T07:00:48.610Z,12.83
2018-04-14T07:03:16.863Z,12.95
2018-04-14T07:05:45.229Z,12.81
2018-04-14T07:08:13.528Z,12.92
2018-04-14T07:10:42.046Z,13.08
2018-04-14T07:13:10.520Z,13.32
2018-04-14T07:15:39.579Z,13.38
2018-04-14T07:18:07.853Z,13.40
2018-04-14T07:20:36.913Z,13.39
2018-04-14T07:23:05.171Z,13.56
2018-04-14T07:25:33.463Z,13.59
2018-04-14T07:28:01.732Z,13.67
2018-04-14T07:30:30.005Z,13.71
2018-04-14T07:32:58.294Z,13.75
2018-04-14T07:35:26.584Z,13.98
2018-04-14T07:37:54.880Z,13.95
2018-04-14T07:40:23.487Z,14.10
2018-04-14T07:42:52.518Z,14.03
2018-04-14T07:45:20.787Z,14.17
2018-04-14T07:47:49.066Z,14.18
2018-04-14T07:50:17.322Z,14.15
2018-04-14T07:52:45.819Z,14.18
2018-04-14T07:55:14.198Z,14.19
2018-04-14T07:57:42.488Z,14.37
2018-04-14T08:00:10.766Z,14.44
2018-04-14T08:02:39.231Z,14.37
2018-04-14T08:05:07.778Z,14.31
2018-04-14T08:07:36.544Z,14.51
2018-04-14T08:10:06.020Z,14.63
2018-04-14T08:12:39.752Z,14.56
2018-04-14T08:15:08.958Z,14.63
2018-04-14T08:17:37.578Z,14.61
2018-04-14T08:20:06.468Z,14.69
2018-04-14T08:22:35.825Z,14.51
2018-04-14T08:25:04.484Z,14.66
2018-04-14T08:27:33.479Z,14.77
2018-04-14T08:30:02.180Z,14.93
2018-04-14T08:32:31.572Z,14.87
2018-04-14T08:35:00.896Z,15.00
2018-04-14T08:37:30.276Z,15.17
2018-04-14T08:39:59.005Z,15.28
2018-04-14T08:42:27.545Z,15.33
2018-04-14T08:44:56.888Z,15.34
2018-04-14T08:47:25.210Z,15.43
2018-04-14T08:49:53.600Z,15.56
2018-04-14T08:52:23.321Z,15.70
2018-04-14T08:54:51.955Z,15.73
2018-04-14T08:57:20.507Z,15.73
2018-04-14T08:59:49.106Z,15.93
2018-04-14T09:02:18.103Z,15.97
2018-04-14T09:04:46.417Z,16.19
2018-04-14T09:07:16.055Z,16.27
2018-04-14T09:09:44.746Z,16.47
2018-04-14T09:12:13.155Z,16.53
2018-04-14T09:14:41.965Z,16.89
2018-04-14T09:17:10.433Z,17.35
2018-04-14T09:19:39.325Z,17.98
2018-04-14T09:22:08.198Z,18.84
2018-04-14T09:24:37.030Z,20.18
2018-04-14T09:27:05.670Z,20.63
2018-04-14T09:29:34.160Z,21.96
2018-04-14T09:32:02.487Z,22.67
2018-04-14T09:34:31.540Z,22.04
2018-04-14T09:37:00.183Z,22.91
2018-04-14T09:39:28.959Z,22.81
2018-04-14T09:41:57.481Z,22.58
2018-04-14T09:44:27.089Z,23.11
2018-04-14T09:46:55.475Z,24.29
2018-04-14T09:49:23.830Z,24.30
2018-04-14T09:51:52.165Z,25.05
2018-04-14T09:54:20.466Z,24.01
2018-04-14T09:56:48.765Z,24.45
2018-04-14T09:59:17.066Z,24.16
2018-04-14T10:01:51.274Z,24.30
2018-04-14T10:04:19.592Z,23.47
2018-04-14T10:06:48.624Z,23.22
2018-04-14T10:09:16.900Z,24.58
2018-04-14T10:11:45.172Z,24.35
2018-04-14T10:14:13.457Z,25.16
2018-04-14T10:16:41.728Z,25.22
2018-04-14T10:19:10.030Z,25.03
2018-04-14T10:21:39.275Z,24.83
2018-04-14T10:24:07.565Z,24.42
2018-04-14T10:26:35.938Z,24.64
2018-04-14T10:29:04.217Z,25.60
2018-04-14T10:31:32.584Z,26.14
2018-04-14T10:34:01.097Z,25.58
2018-04-14T10:36:29.434Z,25.40
2018-04-14T10:38:57.714Z,26.22
2018-04-14T10:41:25.997Z,25.88
2018-04-14T10:43:54.261Z,26.54
2018-04-14T10:46:22.565Z,26.03
2018-04-14T10:48:50.942Z,25.96
2018-04-14T10:51:19.243Z,26.49
2018-04-14T10:53:47.591Z,26.26
2018-04-14T10:56:15.873Z,26.31
2018-04-14T10:58:44.203Z,25.79
2018-04-14T11:01:12.708Z,26.28
2018-04-14T11:03:41.017Z,26.66
2018-04-14T11:06:09.288Z,26.79
2018-04-14T11:08:37.598Z,27.18
2018-04-14T11:11:06.622Z,27.13
2018-04-14T11:13:34.909Z,27.45
2018-04-14T11:16:03.192Z,26.91
2018-04-14T11:18:31.557Z,27.32
2018-04-14T11:20:59.822Z,26.47
2018-04-14T11:23:28.130Z,26.51
2018-04-14T11:25:56.386Z,25.84
2018-04-14T11:28:24.741Z,25.87
2018-04-14T11:30:53.124Z,26.76
2018-04-14T11:33:21.395Z,27.19
2018-04-14T11:35:49.680Z,26.45
2018-04-14T11:38:17.946Z,25.16
2018-04-14T11:40:46.244Z,25.13
2018-04-14T11:43:14.548Z,26.21
2018-04-14T11:45:42.821Z,26.94
2018-04-14T11:48:11.881Z,26.73
2018-04-14T11:50:40.259Z,26.13
2018-04-14T11:53:08.517Z,26.73
2018-04-14T11:55:36.807Z,27.38
2018-04-14T11:58:05.120Z,26.51
2018-04-14T12:00:33.418Z,27.22
2018-04-14T12:03:02.453Z,27.28
2018-04-14T12:05:30.737Z,27.42
2018-04-14T12:07:59.055Z,26.82
2018-04-14T12:10:27.352Z,27.14
2018-04-14T12:12:55.633Z,27.76
2018-04-14T12:15:23.969Z,28.25
2018-04-14T12:17:52.324Z,27.96
2018-04-14T12:20:20.659Z,27.51
2018-04-14T12:22:49.753Z,28.37
2018-04-14T12:25:18.844Z,26.92
2018-04-14T12:27:47.899Z,26.80
2018-04-14T12:30:16.164Z,27.28
2018-04-14T12:32:44.437Z,27.77
2018-04-14T12:35:12.786Z,27.72
2018-04-14T12:37:41.038Z,27.44
2018-04-14T12:40:10.098Z,27.32
2018-04-14T12:42:38.984Z,26.61
2018-04-14T12:45:07.249Z,25.94
2018-04-14T12:47:35.614Z,24.72
2018-04-14T12:50:03.874Z,24.92
2018-04-14T12:52:32.157Z,24.15
2018-04-14T12:55:00.439Z,23.61
2018-04-14T12:57:28.721Z,23.62
2018-04-14T12:59:57.041Z,23.33
2018-04-14T13:02:26.176Z,23.17
2018-04-14T13:04:54.460Z,22.93
2018-04-14T13:07:22.738Z,22.86
2018-04-14T13:09:51.409Z,23.11
2018-04-14T13:12:19.677Z,22.94
2018-04-14T13:14:47.986Z,22.67
2018-04-14T13:17:16.245Z,22.79
2018-04-14T13:19:44.572Z,22.83
2018-04-14T13:22:13.612Z,22.59
2018-04-14T13:24:41.913Z,21.69
2018-04-14T13:27:10.172Z,21.86
2018-04-14T13:29:38.996Z,22.27
2018-04-14T13:32:07.467Z,22.16
2018-04-14T13:34:35.811Z,21.95
2018-04-14T13:37:04.099Z,22.36
2018-04-14T13:39:32.405Z,22.10
2018-04-14T13:42:00.673Z,21.35
2018-04-14T13:44:28.981Z,20.98
2018-04-14T13:46:57.283Z,21.05
2018-04-14T13:49:25.545Z,21.43
2018-04-14T13:51:53.878Z,21.39
2018-04-14T13:54:22.209Z,21.57
2018-04-14T13:56:50.955Z,21.84
2018-04-14T13:59:20.014Z,22.10
2018-04-14T14:01:48.293Z,22.06
2018-04-14T14:04:16.564Z,22.13
2018-04-14T14:06:44.884Z,22.21
2018-04-14T14:09:13.261Z,22.30
2018-04-14T14:11:41.541Z,22.28
2018-04-14T14:14:09.829Z,22.07
2018-04-14T14:16:38.100Z,22.33
2018-04-14T14:19:06.364Z,22.23
2018-04-14T14:21:34.658Z,22.31
2018-04-14T14:24:02.937Z,22.59
2018-04-14T14:26:31.222Z,22.71
2018-04-14T14:28:59.802Z,22.55
2018-04-14T14:31:28.157Z,22.66
2018-04-14T14:33:56.429Z,22.22
2018-04-14T14:36:24.726Z,22.42
2018-04-14T14:38:52.993Z,22.51
2018-04-14T14:41:21.290Z,22.35
2018-04-14T14:43:49.544Z,22.08
2018-04-14T14:46:17.830Z,22.26
2018-04-14T14:48:46.130Z,21.90
2018-04-14T14:51:14.436Z,21.84
2018-04-14T14:53:43.474Z,21.81
2018-04-14T14:56:11.756Z,21.97
2018-04-14T14:58:40.023Z,21.99
2018-04-14T15:01:08.380Z,22.06
2018-04-14T15:03:36.654Z,22.01
2018-04-14T15:06:04.933Z,22.23
2018-04-14T15:08:33.234Z,22.32
2018-04-14T15:11:01.704Z,22.41
2018-04-14T15:13:29.998Z,22.34
2018-04-14T15:15:58.253Z,22.34
2018-04-14T15:18:26.619Z,22.30
2018-04-14T15:20:54.887Z,22.39
2018-04-14T15:23:23.173Z,22.16
2018-04-14T15:25:51.462Z,22.21
2018-04-14T15:28:19.808Z,22.13
2018-04-14T15:30:48.091Z,22.13
2018-04-14T15:33:16.387Z,22.54
2018-04-14T15:35:44.645Z,22.53
2018-04-14T15:38:12.945Z,22.58
2018-04-14T15:40:41.210Z,22.09
2018-04-14T15:43:09.496Z,22.41
2018-04-14T15:45:37.959Z,22.11
2018-04-14T15:48:06.553Z,22.00
2018-04-14T15:50:34.824Z,21.91
2018-04-14T15:53:03.083Z,22.07
2018-04-14T15:55:31.378Z,22.25
2018-04-14T15:57:59.651Z,22.30
2018-04-14T16:00:27.949Z,21.84
2018-04-14T16:02:56.259Z,21.72
2018-04-14T16:05:25.429Z,21.53
2018-04-14T16:07:53.737Z,21.27
2018-04-14T16:10:22.774Z,21.35
2018-04-14T16:12:51.044Z,21.49
2018-04-14T16:15:19.300Z,21.45
2018-04-14T16:17:47.599Z,21.25
2018-04-14T16:20:15.867Z,21.51
2018-04-14T16:22:44.142Z,21.78
2018-04-14T16:25:12.433Z,21.70
2018-04-14T16:27:40.789Z,21.72
2018-04-14T16:30:09.421Z,21.89
2018-04-14T16:32:37.732Z,21.61
2018-04-14T16:35:06.010Z,21.43
2018-04-14T16:37:34.493Z,21.09
2018-04-14T16:40:02.785Z,20.78
2018-04-14T16:42:31.062Z,20.67
2018-04-14T16:44:59.353Z,20.47
2018-04-14T16:47:28.026Z,20.49
2018-04-14T16:49:56.297Z,20.66
2018-04-14T16:52:24.557Z,20.68
2018-04-14T16:54:52.838Z,20.57
2018-04-14T16:57:21.155Z,20.49
2018-04-14T16:59:49.471Z,20.39
2018-04-14T17:02:18.696Z,20.45
2018-04-14T17:04:46.981Z,20.55
2018-04-14T17:07:15.340Z,20.39
2018-04-14T17:09:43.628Z,20.30
2018-04-14T17:12:12.067Z,20.19
2018-04-14T17:14:40.356Z,20.08
2018-04-14T17:17:08.651Z,19.97
2018-04-14T17:19:36.934Z,19.87
2018-04-14T17:22:05.225Z,19.84
2018-04-14T17:24:33.509Z,19.74
2018-04-14T17:27:01.821Z,19.63
2018-04-14T17:29:30.850Z,19.61
2018-04-14T17:31:59.134Z,19.59
2018-04-14T17:34:27.506Z,19.55
2018-04-14T17:36:55.783Z,19.44
2018-04-14T17:39:24.043Z,19.38
2018-04-14T17:41:52.337Z,19.35
2018-04-14T17:44:20.670Z,19.32
2018-04-14T17:46:48.892Z,19.26
2018-04-14T17:49:17.184Z,19.12
2018-04-14T17:51:45.477Z,19.03
2018-04-14T17:54:14.544Z,18.89
2018-04-14T17:56:42.899Z,18.71
2018-04-14T17:59:11.173Z,18.63
2018-04-14T18:01:39.457Z,18.57
2018-04-14T18:04:07.737Z,18.32
2018-04-14T18:06:39.980Z,18.24
2018-04-14T18:09:08.289Z,18.10
2018-04-14T18:11:37.384Z,17.90
2018-04-14T18:14:05.746Z,17.70
2018-04-14T18:16:34.078Z,17.57
2018-04-14T18:19:03.106Z,17.44
2018-04-14T18:21:31.398Z,17.35
2018-04-14T18:23:59.744Z,17.24
2018-04-14T18:26:28.035Z,17.16
2018-04-14T18:28:56.324Z,16.98
2018-04-14T18:31:24.605Z,16.97
2018-04-14T18:33:52.926Z,16.86
2018-04-14T18:36:21.475Z,16.66
2018-04-14T18:38:49.758Z,16.58
2018-04-14T18:41:18.353Z,16.56
2018-04-14T18:43:47.411Z,16.46
2018-04-14T18:46:15.683Z,16.41
2018-04-14T18:48:43.959Z,16.33
2018-04-14T18:51:12.274Z,16.28
2018-04-14T18:53:41.323Z,16.18
2018-04-14T18:56:09.633Z,16.11
2018-04-14T18:58:38.784Z,16.08
2018-04-14T19:01:07.061Z,15.94
2018-04-14T19:03:35.327Z,15.87
2018-04-14T19:06:03.625Z,15.76
2018-04-14T19:08:31.906Z,15.70
2018-04-14T19:11:00.207Z,15.62
2018-04-14T19:13:29.263Z,15.60
2018-04-14T19:15:57.559Z,15.51
2018-04-14T19:18:26.624Z,15.40
2018-04-14T19:20:54.907Z,15.43
2018-04-14T19:23:23.487Z,15.41
2018-04-14T19:25:51.844Z,15.32
2018-04-14T19:28:20.342Z,15.27
2018-04-14T19:30:48.644Z,15.25
2018-04-14T19:33:16.939Z,15.26
2018-04-14T19:35:45.985Z,15.18
2018-04-14T19:38:14.271Z,15.18
2018-04-14T19:40:42.545Z,15.37
2018-04-14T19:43:11.222Z,15.24
2018-04-14T19:45:39.503Z,15.32
2018-04-14T19:48:07.811Z,15.26
2018-04-14T19:50:36.100Z,15.25
2018-04-14T19:53:05.165Z,15.61
2018-04-14T19:55:33.510Z,15.55
2018-04-14T19:58:01.866Z,15.52
2018-04-14T20:00:30.889Z,15.87
2018-04-14T20:02:59.188Z,15.55
2018-04-14T20:05:27.808Z,15.51
2018-04-14T20:07:56.835Z,15.91
2018-04-14T20:10:25.158Z,15.66
2018-04-14T20:12:54.213Z,15.58
2018-04-14T20:15:22.575Z,15.38
2018-04-14T20:17:50.866Z,15.37
2018-04-14T20:20:19.194Z,15.31
2018-04-14T20:22:48.521Z,15.32
2018-04-14T20:25:16.917Z,15.25
2018-04-14T20:27:45.191Z,15.39
2018-04-14T20:30:13.478Z,15.71
2018-04-14T20:32:41.747Z,15.64
2018-04-14T20:35:10.127Z,15.53
2018-04-14T20:37:38.402Z,15.62
2018-04-14T20:40:06.728Z,15.70
2018-04-14T20:42:35.779Z,15.97
2018-04-14T20:45:04.131Z,16.36
2018-04-14T20:47:32.955Z,17.09
2018-04-14T20:50:01.259Z,17.44
2018-04-14T20:52:30.350Z,17.77
2018-04-14T20:54:59.394Z,17.91
2018-04-14T20:57:27.663Z,18.01
2018-04-14T20:59:55.964Z,18.11
2018-04-14T21:02:24.281Z,18.09
2018-04-14T21:04:52.564Z,18.11
2018-04-14T21:07:20.861Z,18.09
2018-04-14T21:09:49.153Z,18.05
2018-04-14T21:12:17.441Z,18.07
2018-04-14T21:14:46.134Z,18.00
2018-04-14T21:17:15.220Z,18.02
2018-04-14T21:19:43.572Z,18.03
2018-04-14T21:22:11.837Z,18.12
2018-04-14T21:24:40.353Z,18.05
2018-04-14T21:27:08.623Z,18.06
2018-04-14T21:29:37.696Z,18.00
2018-04-14T21:32:05.982Z,18.02
2018-04-14T21:34:34.458Z,17.96
2018-04-14T21:37:02.743Z,17.92
2018-04-14T21:39:31.736Z,18.03
2018-04-14T21:41:59.991Z,17.99
2018-04-14T21:44:28.343Z,17.92
2018-04-14T21:46:56.860Z,17.86
2018-04-14T21:49:25.176Z,17.88
2018-04-14T21:51:53.450Z,17.91
2018-04-14T21:54:21.800Z,17.90
2018-04-14T21:56:50.214Z,17.87
2018-04-14T21:59:18.526Z,17.86
2018-04-14T22:01:46.801Z,17.87
2018-04-14T22:04:15.111Z,17.81
2018-04-14T22:06:43.439Z,17.78
2018-04-14T22:09:11.790Z,17.86
2018-04-14T22:11:40.889Z,17.83
2018-04-14T22:14:09.158Z,17.94
2018-04-14T22:16:37.475Z,17.94
2018-04-14T22:19:05.758Z,17.84
2018-04-14T22:21:34.062Z,17.91
2018-04-14T22:24:02.341Z,17.88
2018-04-14T22:26:30.632Z,17.88
2018-04-14T22:28:59.745Z,17.88
2018-04-14T22:31:28.026Z,17.83
2018-04-14T22:33:56.531Z,17.85
2018-04-14T22:36:24.998Z,17.83
2018-04-14T22:38:53.296Z,17.79
2018-04-14T22:41:21.596Z,17.80
2018-04-14T22:43:50.789Z,17.91
2018-04-14T22:46:19.074Z,17.86
2018-04-14T22:48:47.389Z,17.79
2018-04-14T22:51:15.685Z,17.78
2018-04-14T22:53:44.114Z,17.81
2018-04-14T22:56:13.160Z,17.70
2018-04-14T22:58:41.839Z,17.79
2018-04-14T23:01:10.122Z,17.74
2018-04-14T23:03:38.379Z,17.73
2018-04-14T23:06:06.683Z,17.79
2018-04-14T23:08:34.941Z,17.74
2018-04-14T23:11:03.214Z,17.72
2018-04-14T23:13:31.485Z,17.62
2018-04-14T23:15:59.777Z,17.62
2018-04-14T23:18:28.062Z,17.66
2018-04-14T23:20:56.325Z,17.77
2018-04-14T23:23:24.615Z,17.75
2018-04-14T23:25:52.951Z,17.78
2018-04-14T23:28:21.979Z,17.66
2018-04-14T23:30:50.286Z,17.70
2018-04-14T23:33:19.338Z,17.71
2018-04-14T23:35:47.629Z,17.67
2018-04-14T23:38:17.447Z,17.78
2018-04-14T23:40:46.519Z,17.68
2018-04-14T23:43:14.795Z,17.61
2018-04-14T23:45:43.057Z,17.64
2018-04-14T23:48:11.341Z,17.53
2018-04-14T23:50:39.613Z,17.30
2018-04-14T23:53:07.932Z,17.09
2018-04-14T23:55:36.988Z,16.96
2018-04-14T23:58:05.277Z,16.97
